Terminal Aerodrome Forecast
Issued by NWS

Home | Current Version | Previous Version | Text Only | Print | Product List | Glossary On
Versions: 1 2 3 4 5 6 7 8 9 10 11 12 13 14 15 16 17 18 19 20 21 22 23
000
FTUS46 KMFR 270725 AAA
TAFOTH
TAF AMD
KOTH 270725Z 2707/2806 VRB03KT 1/2SM FG OVC002
     FM271800 27010KT 5SM BR BKN005 OVC010
     FM272100 27015G22KT P6SM -RA OVC010
     FM280400 26011KT P6SM -SHRA SCT010 OVC025=

USA.gov is the U.S. government's official web portal to all federal, state and local government web resources and services.